Time;durP1;ratioP1;P1;durP2;ratioP2;P2;SDS_P1;SDS_P2;PMS_P1;PMS_P2;Temp;Humidity;BMP_temperature;BMP_pressure;BME280_temperature;BME280_humidity;BME280_pressure;Samples;Min_cycle;Max_cycle;Signal;HPM_P1;HPM_P2
2022/12/25 00:01:31;;;;;;;61.50;38.23;;;;;;;4.26;84.83;99253.59;1727349;83;21918;-41
2022/12/25 00:03:57;;;;;;;61.42;38.73;;;;;;;4.26;84.66;99257.62;1727096;83;21509;-40
2022/12/25 00:06:24;;;;;;;61.70;38.13;;;;;;;4.21;84.76;99259.90;1727112;83;21027;-40
2022/12/25 00:08:51;;;;;;;58.45;37.30;;;;;;;4.17;85.13;99259.52;1727184;83;21592;-40
2022/12/25 00:11:18;;;;;;;54.55;35.95;;;;;;;4.15;85.22;99260.41;1727324;83;21080;-40
2022/12/25 00:13:46;;;;;;;61.77;37.73;;;;;;;4.17;85.15;99260.86;1727366;83;21233;-41
2022/12/25 00:16:17;;;;;;;58.02;36.90;;;;;;;4.18;85.19;99265.12;1727254;83;21000;-41
2022/12/25 00:18:44;;;;;;;51.40;33.95;;;;;;;4.15;85.36;99265.22;1727382;83;20980;-42
2022/12/25 00:21:11;;;;;;;52.17;34.50;;;;;;;4.16;85.22;99268.70;1727508;83;20991;-41
2022/12/25 00:23:38;;;;;;;52.88;34.80;;;;;;;4.18;85.07;99273.17;1727644;83;21550;-41
2022/12/25 00:26:10;;;;;;;55.33;36.05;;;;;;;4.14;85.19;99269.00;1727315;83;21088;-41
2022/12/25 00:28:38;;;;;;;53.70;33.73;;;;;;;4.10;85.27;99270.75;1727351;83;21502;-41
2022/12/25 00:31:08;;;;;;;52.25;34.03;;;;;;;4.08;85.23;99276.98;1727440;83;21549;-40
2022/12/25 00:33:37;;;;;;;54.03;34.15;;;;;;;4.07;85.19;99278.63;1727744;83;21052;-41
2022/12/25 00:36:07;;;;;;;52.78;34.20;;;;;;;4.04;85.29;99278.72;1729399;82;21055;-41
2022/12/25 00:38:35;;;;;;;48.00;32.13;;;;;;;3.98;85.39;99281.88;1736773;82;21166;-41
2022/12/25 00:41:13;;;;;;;49.05;31.75;;;;;;;3.91;85.62;99283.17;1736717;82;21561;-41
2022/12/25 00:43:43;;;;;;;48.90;31.93;;;;;;;3.93;85.61;99281.48;1737207;82;21024;-41
2022/12/25 00:46:11;;;;;;;51.33;33.60;;;;;;;3.93;85.72;99286.85;1737205;82;20984;-41
2022/12/25 00:48:38;;;;;;;45.52;29.75;;;;;;;3.89;85.93;99294.75;1737040;82;21044;-40
2022/12/25 00:51:07;;;;;;;46.50;30.95;;;;;;;3.90;85.97;99293.66;1736962;82;21256;-41
2022/12/25 00:53:34;;;;;;;44.38;30.40;;;;;;;3.94;85.76;99302.64;1737005;82;20961;-41
2022/12/25 00:56:03;;;;;;;47.08;31.20;;;;;;;3.96;85.85;99306.35;1737205;82;21553;-40
2022/12/25 00:58:32;;;;;;;43.70;29.70;;;;;;;3.95;86.04;99304.77;1737030;82;21071;-40
2022/12/25 01:00:58;;;;;;;42.93;27.55;;;;;;;4.02;85.93;99308.33;1737239;82;21060;-41
2022/12/25 01:03:25;;;;;;;44.08;29.25;;;;;;;4.07;85.52;99308.92;1736945;82;21216;-40
2022/12/25 01:05:59;;;;;;;47.73;29.98;;;;;;;4.10;85.34;99311.55;1736995;82;21052;-40
2022/12/25 01:08:25;;;;;;;48.63;31.10;;;;;;;4.07;85.34;99308.13;1736789;82;21032;-41
2022/12/25 01:10:58;;;;;;;40.92;28.10;;;;;;;4.02;85.18;99312.34;1736813;82;21096;-41
2022/12/25 01:13:24;;;;;;;42.53;29.05;;;;;;;3.99;85.21;99310.28;1736846;82;21087;-41
2022/12/25 01:15:51;;;;;;;46.98;29.90;;;;;;;4.01;85.07;99317.47;1736783;82;21150;-40
2022/12/25 01:18:21;;;;;;;43.95;28.85;;;;;;;3.99;85.04;99321.80;1736729;82;21000;-41
2022/12/25 01:20:47;;;;;;;44.43;28.93;;;;;;;3.92;85.15;99315.56;1736423;82;21087;-41
2022/12/25 01:23:14;;;;;;;40.33;28.38;;;;;;;3.88;85.15;99316.52;1736761;82;21087;-41
2022/12/25 01:25:41;;;;;;;43.02;27.85;;;;;;;3.87;85.20;99313.03;1741164;81;20981;-41
2022/12/25 01:28:07;;;;;;;45.55;30.57;;;;;;;3.85;85.25;99313.92;1767269;81;21259;-41
2022/12/25 01:30:36;;;;;;;41.80;27.62;;;;;;;3.78;85.51;99312.25;1767089;81;21502;-41
2022/12/25 01:33:02;;;;;;;43.05;26.77;;;;;;;3.77;85.59;99313.93;1767215;81;21087;-41
2022/12/25 01:35:29;;;;;;;40.80;27.80;;;;;;;3.76;85.80;99313.14;1767198;81;21011;-41
2022/12/25 01:37:56;;;;;;;39.75;26.25;;;;;;;3.76;85.81;99310.45;1767174;81;21052;-40
2022/12/25 01:40:22;;;;;;;37.10;24.35;;;;;;;3.72;85.96;99315.42;1767405;81;22067;-41
2022/12/25 01:42:49;;;;;;;36.90;25.10;;;;;;;3.68;86.20;99309.88;1754821;81;20972;-41
2022/12/25 01:45:37;;;;;;;38.20;26.48;;;;;;;3.73;86.05;99311.06;1752063;81;21487;-41
2022/12/25 01:48:13;;;;;;;34.63;24.70;;;;;;;3.73;86.04;99308.39;1751521;81;20940;-41
2022/12/25 01:50:44;;;;;;;33.18;23.25;;;;;;;3.66;86.18;99306.74;1752051;81;21498;-41
2022/12/25 01:53:10;;;;;;;28.32;18.67;;;;;;;3.66;86.29;99308.09;1752593;81;21158;-41
2022/12/25 01:55:37;;;;;;;34.65;23.65;;;;;;;3.72;86.19;99313.53;1752057;81;21532;-40
2022/12/25 01:58:04;;;;;;;35.33;24.55;;;;;;;3.74;86.30;99314.54;1752333;81;21000;-40
2022/12/25 02:00:31;;;;;;;29.15;21.60;;;;;;;3.76;86.34;99313.14;1752266;81;21087;-41
2022/12/25 02:02:57;;;;;;;33.18;22.48;;;;;;;3.77;86.24;99317.41;1752480;81;21598;-41
2022/12/25 02:05:28;;;;;;;32.78;22.75;;;;;;;3.84;85.89;99316.91;1725091;81;21132;-41
2022/12/25 02:08:09;;;;;;;36.05;22.93;;;;;;;3.85;85.77;99316.61;1752506;81;21016;-41
2022/12/25 02:10:37;;;;;;;31.02;21.70;;;;;;;3.82;85.71;99321.27;1752169;81;21541;-41
2022/12/25 02:13:06;;;;;;;29.55;20.65;;;;;;;3.77;85.54;99322.77;1752503;81;21056;-41
2022/12/25 02:15:53;;;;;;;28.85;20.75;;;;;;;3.82;85.47;99335.23;1752169;81;21052;-41
2022/12/25 02:18:38;;;;;;;32.70;21.25;;;;;;;3.85;85.47;99331.36;1743623;81;21143;-41
2022/12/25 02:21:51;;;;;;;31.70;20.85;;;;;;;3.84;85.43;99333.80;1760364;81;20937;-40
2022/12/25 02:24:51;;;;;;;26.73;19.12;;;;;;;3.83;85.40;99334.89;1752091;81;21016;-40
2022/12/25 02:27:45;;;;;;;28.25;19.52;;;;;;;3.85;84.99;99337.27;1752092;81;21586;-40
2022/12/25 02:30:12;;;;;;;25.37;17.90;;;;;;;3.81;84.88;99337.12;1752137;81;21068;-40
2022/12/25 02:35:49;;;;;;;24.98;17.45;;;;;;;3.71;84.87;99337.42;1752191;81;21670;-41
2022/12/25 02:38:20;;;;;;;;;;;;;;;3.72;84.90;99336.88;1764157;81;21888;-41
2022/12/25 02:40:55;;;;;;;26.10;18.05;;;;;;;3.68;84.99;99340.71;1763111;81;20197;-41
2022/12/25 03:08:47;;;;;;;17.12;12.90;;;;;;;3.69;84.86;99371.78;1747233;82;21075;-40
2022/12/25 03:11:31;;;;;;;18.17;13.65;;;;;;;3.67;84.74;99374.02;1746800;82;20969;-41
2022/12/25 03:16:54;;;;;;;17.55;13.15;;;;;;;3.56;85.07;99380.76;1732983;82;20937;-41
2022/12/25 03:28:00;;;;;;;19.10;13.65;;;;;;;3.40;85.62;99391.66;1746871;82;21145;-41
2022/12/25 03:33:32;;;;;;;18.95;14.73;;;;;;;3.43;85.67;99390.52;1761074;81;20916;-41
2022/12/25 03:36:19;;;;;;;15.75;12.47;;;;;;;3.37;85.98;99388.28;1746740;82;20992;-40
2022/12/25 04:37:56;;;;;;;10.20;8.85;;;;;;;3.19;86.45;99428.17;1753481;81;21186;-41
2022/12/25 04:40:22;;;;;;;11.25;8.60;;;;;;;3.13;86.36;99440.11;1754860;81;20965;-40
2022/12/25 04:42:51;;;;;;;11.85;9.75;;;;;;;3.14;86.19;99441.16;1755086;81;21061;-41
2022/12/25 04:45:18;;;;;;;10.98;8.75;;;;;;;3.13;86.27;99438.77;1755043;81;21815;-40
2022/12/25 04:47:44;;;;;;;10.25;8.65;;;;;;;3.09;86.38;99439.15;1755287;81;21555;-41
2022/12/25 04:50:11;;;;;;;10.43;9.25;;;;;;;3.09;86.38;99443.96;1755184;81;21235;-40
2022/12/25 04:52:39;;;;;;;11.20;9.58;;;;;;;3.14;86.20;99443.03;1755102;81;21088;-41
2022/12/25 04:55:07;;;;;;;11.45;9.75;;;;;;;3.13;86.31;99440.91;1755141;81;20992;-41
2022/12/25 04:57:33;;;;;;;11.30;9.13;;;;;;;3.13;86.38;99447.59;1755302;81;20964;-40
2022/12/25 05:00:00;;;;;;;11.00;9.33;;;;;;;3.17;86.14;99453.13;1755203;81;20980;-41
2022/12/25 05:02:27;;;;;;;11.57;9.58;;;;;;;3.17;86.10;99447.77;1755144;81;23181;-41
2022/12/25 05:04:53;;;;;;;10.55;9.05;;;;;;;3.14;86.19;99449.19;1755172;81;20984;-41
2022/12/25 05:07:21;;;;;;;10.58;9.18;;;;;;;3.09;86.27;99452.55;1755200;81;20913;-41
2022/12/25 05:09:49;;;;;;;10.65;9.23;;;;;;;3.10;86.26;99456.81;1755130;81;21709;-40
2022/12/25 05:12:15;;;;;;;11.28;9.58;;;;;;;3.13;86.22;99457.52;1755046;81;21024;-41
2022/12/25 05:14:42;;;;;;;11.90;9.80;;;;;;;3.14;86.27;99463.12;1755137;81;21129;-40
2022/12/25 05:17:08;;;;;;;13.38;9.45;;;;;;;3.12;86.33;99468.78;1754872;81;21006;-41
2022/12/25 05:19:35;;;;;;;10.75;9.25;;;;;;;3.10;86.31;99470.20;1754849;81;21048;-41
2022/12/25 05:22:02;;;;;;;11.30;9.50;;;;;;;3.14;86.18;99466.59;1755205;81;21541;-41
2022/12/25 05:24:29;;;;;;;11.75;9.95;;;;;;;3.15;86.18;99465.48;1755151;81;21456;-41
2022/12/25 05:26:56;;;;;;;10.65;9.38;;;;;;;3.13;86.19;99467.69;1754981;81;21143;-41
2022/12/25 05:29:23;;;;;;;10.18;8.80;;;;;;;3.12;86.25;99473.34;1755056;81;20964;-41
2022/12/25 05:31:49;;;;;;;10.93;9.00;;;;;;;3.15;86.02;99474.85;1754999;81;21019;-41
2022/12/25 05:34:16;;;;;;;12.47;9.53;;;;;;;3.15;86.07;99482.13;1755174;81;21538;-41
2022/12/25 05:36:42;;;;;;;10.40;9.13;;;;;;;3.11;86.11;99481.92;1755482;81;21052;-40
2022/12/25 05:39:09;;;;;;;10.48;8.78;;;;;;;3.08;86.26;99488.45;1752788;81;21249;-40
2022/12/25 05:41:36;;;;;;;10.38;8.50;;;;;;;3.10;86.15;99487.61;1752328;81;21503;-40
2022/12/25 05:44:03;;;;;;;11.93;9.58;;;;;;;3.09;86.08;99492.72;1752311;81;21012;-41
2022/12/25 05:46:32;;;;;;;9.35;7.90;;;;;;;3.04;86.31;99497.11;1752247;81;21509;-41
2022/12/25 05:48:58;;;;;;;11.45;9.13;;;;;;;3.01;86.35;99498.25;1752142;81;21610;-41
2022/12/25 05:51:25;;;;;;;11.03;9.70;;;;;;;3.04;86.28;99504.35;1751977;81;23126;-41
2022/12/25 05:53:51;;;;;;;12.23;9.83;;;;;;;3.05;86.43;99502.69;1751986;81;21016;-41
2022/12/25 05:56:18;;;;;;;11.00;9.25;;;;;;;3.03;86.32;99516.95;1746462;81;20963;-41
2022/12/25 05:58:44;;;;;;;10.82;8.93;;;;;;;3.00;86.32;99512.19;1752055;81;20953;-41
2022/12/25 06:01:17;;;;;;;10.13;8.93;;;;;;;3.06;86.20;99508.29;1752166;81;21594;-41
2022/12/25 06:03:44;;;;;;;9.75;8.75;;;;;;;3.09;86.14;99513.59;1752122;81;21242;-41
2022/12/25 06:06:11;;;;;;;12.63;9.15;;;;;;;3.04;86.11;99521.22;1752106;81;20988;-40
2022/12/25 06:08:38;;;;;;;9.83;8.10;;;;;;;3.04;86.13;99527.12;1752161;81;20981;-40
2022/12/25 06:11:06;;;;;;;10.25;8.83;;;;;;;3.08;85.94;99532.64;1752018;81;21511;-41
2022/12/25 06:13:34;;;;;;;11.65;8.93;;;;;;;3.10;85.80;99534.48;1752547;81;21104;-41
2022/12/25 06:16:07;;;;;;;10.88;9.08;;;;;;;3.07;85.83;99538.55;1752279;81;22115;-41
2022/12/25 06:18:42;;;;;;;9.78;8.45;;;;;;;3.05;85.98;99545.54;1752540;81;20957;-41
2022/12/25 06:21:11;;;;;;;10.23;8.78;;;;;;;3.05;85.87;99545.54;1752213;81;22358;-41
2022/12/25 06:23:37;;;;;;;9.48;8.43;;;;;;;3.10;85.60;99557.25;1752417;81;21087;-41
2022/12/25 06:26:06;;;;;;;9.60;7.67;;;;;;;3.06;85.60;99565.87;1752300;81;21495;-41
2022/12/25 06:28:33;;;;;;;9.35;7.53;;;;;;;3.02;85.70;99574.28;1752428;81;21105;-40
2022/12/25 06:31:06;;;;;;;10.32;8.30;;;;;;;3.02;85.78;99576.16;1752064;81;20969;-41
2022/12/25 06:33:34;;;;;;;11.90;8.63;;;;;;;3.05;85.52;99579.56;1751852;81;21572;-41
2022/12/25 06:36:11;;;;;;;9.73;8.20;;;;;;;3.02;85.58;99580.18;1752008;81;21580;-41
2022/12/25 06:38:38;;;;;;;9.48;8.20;;;;;;;3.00;85.60;99589.09;1753404;81;21604;-41
2022/12/25 06:41:08;;;;;;;9.55;8.23;;;;;;;2.97;85.58;99590.47;1754921;81;23173;-41
2022/12/25 06:43:34;;;;;;;11.43;8.23;;;;;;;2.98;85.33;99592.06;1755204;81;20984;-40
2022/12/25 06:46:09;;;;;;;10.68;8.53;;;;;;;2.96;85.30;99594.78;1755168;81;21099;-41
2022/12/25 06:48:37;;;;;;;9.78;7.90;;;;;;;2.92;85.45;99601.84;1755384;81;21141;-41
2022/12/25 06:51:04;;;;;;;10.72;7.97;;;;;;;2.88;85.48;99603.00;1755238;81;21088;-41
2022/12/25 06:53:33;;;;;;;10.10;8.50;;;;;;;2.90;85.38;99604.84;1755263;81;23144;-40
2022/12/25 06:56:06;;;;;;;10.88;8.35;;;;;;;2.90;85.45;99616.89;1755223;81;21268;-41
2022/12/25 06:58:32;;;;;;;10.00;7.75;;;;;;;2.84;85.52;99608.72;1755534;81;21004;-40
2022/12/25 07:00:59;;;;;;;10.00;7.75;;;;;;;2.82;85.50;99617.59;1754969;81;21015;-40
2022/12/25 07:03:28;;;;;;;9.78;7.90;;;;;;;2.86;85.33;99617.22;1755040;81;21577;-40
2022/12/25 07:05:54;;;;;;;8.28;7.35;;;;;;;2.86;85.32;99619.11;1755014;81;21130;-41
2022/12/25 07:08:21;;;;;;;8.53;7.40;;;;;;;2.82;85.34;99619.47;1754903;81;21409;-41
2022/12/25 07:10:48;;;;;;;8.93;7.55;;;;;;;2.79;85.19;99622.22;1754946;81;21076;-41
2022/12/25 07:13:15;;;;;;;9.03;7.37;;;;;;;2.79;85.16;99626.23;1754865;81;20941;-41
2022/12/25 07:15:41;;;;;;;8.40;7.45;;;;;;;2.80;85.09;99621.13;1755126;81;21052;-41
2022/12/25 07:18:08;;;;;;;9.50;7.70;;;;;;;2.77;85.14;99621.71;1754936;81;21423;-41
2022/12/25 07:20:35;;;;;;;11.35;7.90;;;;;;;2.75;85.15;99619.90;1754933;81;21012;-41
2022/12/25 07:23:02;;;;;;;9.38;8.10;;;;;;;2.74;85.03;99618.31;1755020;81;20975;-41
2022/12/25 07:25:29;;;;;;;10.63;7.75;;;;;;;2.75;84.95;99621.78;1754886;81;21008;-41
2022/12/25 07:27:55;;;;;;;9.05;7.33;;;;;;;2.71;85.03;99630.17;1755121;81;21020;-41
2022/12/25 07:30:23;;;;;;;9.05;7.22;;;;;;;2.70;85.09;99636.07;1755058;81;22076;-41
2022/12/25 07:32:50;;;;;;;8.88;7.78;;;;;;;2.73;84.79;99636.80;1754963;81;21250;-40
2022/12/25 07:35:17;;;;;;;8.93;7.55;;;;;;;2.73;84.76;99647.50;1755234;81;21020;-41
2022/12/25 07:37:44;;;;;;;8.18;6.80;;;;;;;2.70;84.81;99645.44;1755379;81;21554;-41
2022/12/25 07:40:12;;;;;;;8.23;6.65;;;;;;;2.70;84.92;99642.77;1752341;81;21087;-41
2022/12/25 07:43:39;;;;;;;8.23;6.97;;;;;;;2.80;84.61;99642.55;1836582;78;22599;-40
2022/12/25 07:46:05;;;;;;;10.08;7.67;;;;;;;2.72;84.62;99643.23;1806367;79;20927;-40
2022/12/25 07:48:34;;;;;;;8.03;6.92;;;;;;;2.71;84.71;99651.02;1806340;79;20955;-40
2022/12/25 07:51:04;;;;;;;7.45;6.45;;;;;;;2.63;84.73;99642.36;1806272;79;21520;-40
2022/12/25 07:53:30;;;;;;;6.35;5.75;;;;;;;2.69;84.56;99658.57;1800974;79;21073;-40
2022/12/25 07:56:03;;;;;;;7.97;7.12;;;;;;;2.74;84.36;99660.34;1784184;80;21266;-40
2022/12/25 07:58:29;;;;;;;8.58;6.83;;;;;;;2.70;84.57;99657.48;1784414;79;21004;-40
2022/12/25 08:01:06;;;;;;;7.78;6.58;;;;;;;2.67;84.66;99663.42;1784582;79;21499;-40
2022/12/25 08:03:33;;;;;;;7.72;6.58;;;;;;;2.69;84.62;99663.92;1784125;80;20913;-40
2022/12/25 08:06:01;;;;;;;7.72;6.67;;;;;;;2.72;84.54;99657.96;1784301;79;20949;-40
2022/12/25 08:08:29;;;;;;;7.72;6.92;;;;;;;2.70;84.60;99654.81;1784352;80;21472;-40
2022/12/25 08:10:55;;;;;;;6.42;5.78;;;;;;;2.70;84.83;99661.50;1784280;79;21391;-40
2022/12/25 08:13:22;;;;;;;6.60;5.90;;;;;;;2.71;84.92;99668.41;1784218;79;21243;-39
2022/12/25 08:15:48;;;;;;;7.40;6.70;;;;;;;2.80;84.67;99676.02;1784212;79;20922;-40
2022/12/25 08:18:15;;;;;;;8.03;6.20;;;;;;;2.84;84.58;99669.50;1784533;79;20997;-40
2022/12/25 08:20:42;;;;;;;7.97;6.22;;;;;;;2.84;84.46;99667.63;1784372;79;21033;-39
2022/12/25 08:23:08;;;;;;;6.60;5.90;;;;;;;2.85;84.38;99674.56;1784330;80;21032;-39
2022/12/25 08:25:36;;;;;;;7.70;6.40;;;;;;;2.91;84.14;99681.37;1784155;80;23159;-40
2022/12/25 08:28:04;;;;;;;7.00;5.78;;;;;;;2.97;84.14;99678.05;1784379;80;20973;-40
2022/12/25 08:30:30;;;;;;;8.03;6.30;;;;;;;3.01;84.08;99679.03;1784790;80;21580;-40
2022/12/25 08:32:57;;;;;;;8.83;5.95;;;;;;;2.98;83.62;99676.42;1784692;80;20997;-40
2022/12/25 08:35:25;;;;;;;7.25;6.10;;;;;;;2.96;83.29;99675.91;1784471;80;20990;-39
2022/12/25 08:37:51;;;;;;;7.33;6.37;;;;;;;2.97;83.07;99680.72;1784579;80;21114;-40
2022/12/25 08:40:18;;;;;;;6.60;5.70;;;;;;;2.94;83.33;99685.36;1784479;79;21768;-40
2022/12/25 08:42:45;;;;;;;6.78;5.30;;;;;;;2.93;83.47;99688.58;1787144;80;21056;-39
2022/12/25 08:45:12;;;;;;;7.12;5.45;;;;;;;2.96;83.50;99686.63;1790147;79;20961;-39
2022/12/25 08:47:39;;;;;;;6.90;5.78;;;;;;;3.01;83.26;99694.55;1790176;79;21023;-39
2022/12/25 08:50:07;;;;;;;6.40;5.45;;;;;;;3.04;83.22;99703.34;1790224;80;21235;-40
2022/12/25 08:52:34;;;;;;;6.53;5.70;;;;;;;3.04;83.31;99700.66;1790499;79;20906;-40
2022/12/25 08:55:01;;;;;;;6.30;5.47;;;;;;;3.03;83.40;99711.13;1789379;80;21561;-39
2022/12/25 08:57:27;;;;;;;6.47;5.60;;;;;;;3.07;83.11;99705.95;1789412;80;21428;-39
2022/12/25 08:59:54;;;;;;;6.05;5.45;;;;;;;3.09;82.94;99701.64;1789505;79;20913;-39
2022/12/25 09:02:21;;;;;;;6.45;5.70;;;;;;;3.06;83.03;99707.83;1789387;80;23108;-40
2022/12/25 09:04:47;;;;;;;6.30;5.58;;;;;;;3.04;83.17;99706.02;1789499;79;21021;-39
2022/12/25 09:07:14;;;;;;;6.70;6.00;;;;;;;3.03;83.30;99709.79;1789520;79;20950;-40
2022/12/25 09:09:42;;;;;;;7.65;5.55;;;;;;;3.12;83.17;99715.22;1789583;80;20968;-40
2022/12/25 09:12:09;;;;;;;7.22;6.05;;;;;;;3.17;83.08;99723.69;1789510;80;21040;-40
2022/12/25 09:14:35;;;;;;;6.87;5.83;;;;;;;3.15;82.93;99723.98;1789716;80;21466;-40
2022/12/25 09:17:02;;;;;;;6.45;5.10;;;;;;;3.13;82.95;99722.70;1789591;79;20952;-39
2022/12/25 09:19:30;;;;;;;5.42;4.92;;;;;;;3.13;82.67;99716.81;1789676;80;21459;-40
2022/12/25 09:21:57;;;;;;;6.67;5.67;;;;;;;3.12;82.26;99707.72;1789403;80;21330;-39
2022/12/25 09:24:23;;;;;;;6.17;5.40;;;;;;;3.05;82.73;99709.47;1789775;79;21007;-40
2022/12/25 09:26:50;;;;;;;5.20;4.70;;;;;;;3.00;82.92;99708.27;1789573;80;21361;-40
2022/12/25 09:29:17;;;;;;;5.83;5.22;;;;;;;3.01;83.06;99710.63;1789675;79;20996;-40
2022/12/25 09:31:43;;;;;;;7.22;5.40;;;;;;;3.08;82.92;99712.11;1789851;80;21024;-40
2022/12/25 09:34:11;;;;;;;6.75;5.83;;;;;;;3.06;83.09;99715.08;1789718;80;20906;-40
2022/12/25 09:36:38;;;;;;;6.35;5.30;;;;;;;3.05;83.24;99721.52;1789756;79;21028;-41
2022/12/25 09:39:05;;;;;;;5.45;4.92;;;;;;;3.04;83.25;99719.41;1789676;80;21068;-40
2022/12/25 09:41:46;;;;;;;6.35;5.50;;;;;;;3.09;83.05;99729.22;1789415;80;21491;-41
2022/12/25 09:44:33;;;;;;;6.60;5.30;;;;;;;3.11;83.22;99734.26;1786787;79;21475;-40
2022/12/25 09:47:07;;;;;;;5.85;5.15;;;;;;;3.13;83.34;99736.11;1782783;80;20965;-40
2022/12/25 09:50:03;;;;;;;6.47;5.30;;;;;;;3.18;83.23;99740.02;1786112;80;21350;-40
2022/12/25 09:52:45;;;;;;;6.67;5.60;;;;;;;3.23;83.08;99746.06;1787132;79;21554;-40
2022/12/25 09:55:23;;;;;;;7.00;5.30;;;;;;;3.25;83.20;99749.76;1780995;80;20957;-40
2022/12/25 09:57:58;;;;;;;7.15;5.50;;;;;;;3.21;82.89;99748.78;1786584;79;20949;-41
2022/12/25 10:00:28;;;;;;;5.67;4.80;;;;;;;3.21;82.84;99750.12;1786657;80;20996;-41
2022/12/25 10:03:21;;;;;;;7.70;6.00;;;;;;;3.25;82.72;99750.55;1786529;80;21044;-41
2022/12/25 10:06:06;;;;;;;6.47;5.78;;;;;;;3.26;82.85;99743.31;1786921;80;21123;-40
2022/12/25 10:09:12;;;;;;;7.75;6.10;;;;;;;3.23;83.09;99739.91;1786701;80;21001;-40
2022/12/25 10:12:22;;;;;;;5.75;5.10;;;;;;;3.23;83.23;99741.25;1786764;80;20996;-40
2022/12/25 10:15:00;;;;;;;5.45;4.55;;;;;;;3.27;83.12;99744.91;1787213;79;21589;-40
2022/12/25 10:17:55;;;;;;;7.70;5.95;;;;;;;3.21;82.92;99740.74;1787192;79;21291;-40
2022/12/25 10:20:48;;;;;;;6.03;5.20;;;;;;;2.76;82.98;99689.73;1787113;80;21121;-41
2022/12/25 10:23:23;;;;;;;5.67;5.10;;;;;;;3.06;83.26;99747.22;1787121;80;21502;-41
2022/12/25 10:25:51;;;;;;;6.35;5.72;;;;;;;3.08;83.37;99753.62;1768782;80;20957;-41
2022/12/25 10:28:26;;;;;;;8.30;5.65;;;;;;;3.09;83.65;99758.69;1786918;80;21347;-41
2022/12/25 10:30:53;;;;;;;7.20;5.65;;;;;;;3.06;83.54;99768.10;1759616;79;21028;-40
2022/12/25 10:33:20;;;;;;;6.00;5.40;;;;;;;3.04;83.41;99766.28;1787063;79;21136;-40
2022/12/25 10:35:48;;;;;;;7.62;5.42;;;;;;;3.10;83.54;99772.87;1787026;80;21003;-41
2022/12/25 10:38:19;;;;;;;7.12;6.05;;;;;;;3.17;83.63;99770.57;1787027;80;21009;-41
2022/12/25 10:41:03;;;;;;;7.08;5.55;;;;;;;3.13;83.63;99774.41;1787121;79;21537;-41
2022/12/25 10:43:38;;;;;;;6.08;5.47;;;;;;;3.16;83.72;99785.84;1715767;81;20986;-41
2022/12/25 10:46:10;;;;;;;6.17;5.30;;;;;;;3.22;83.71;99789.22;1767310;80;21522;-40
2022/12/25 10:48:45;;;;;;;6.00;5.37;;;;;;;3.30;83.47;99783.14;1773107;79;21534;-41
2022/12/25 10:51:11;;;;;;;6.97;5.85;;;;;;;3.28;83.32;99784.01;1773827;79;20957;-41
2022/12/25 10:53:42;;;;;;;7.50;5.87;;;;;;;3.26;83.55;99784.84;1773023;79;21297;-41
2022/12/25 13:43:41;;;;;;;13.13;9.18;;;;;;;3.27;87.37;99948.54;1751718;81;21483;-39
2022/12/25 13:46:13;;;;;;;11.97;8.93;;;;;;;3.21;87.13;99946.50;1729990;83;21077;-39
2022/12/25 13:48:41;;;;;;;12.58;9.18;;;;;;;3.17;86.66;99954.88;1729880;83;20931;-39
2022/12/25 13:51:13;;;;;;;10.38;8.35;;;;;;;3.17;86.02;99956.77;1730051;83;21532;-39
2022/12/25 13:53:40;;;;;;;9.63;8.05;;;;;;;3.20;85.66;99958.30;1729762;83;21009;-40
2022/12/25 13:56:12;;;;;;;10.03;8.08;;;;;;;3.26;85.44;99961.69;1729923;83;21554;-39
2022/12/25 13:58:38;;;;;;;11.53;8.30;;;;;;;3.20;84.71;99955.63;1729876;83;21109;-40
2022/12/25 14:01:05;;;;;;;11.50;7.95;;;;;;;3.13;84.26;99963.81;1729619;83;21025;-40
2022/12/25 14:03:42;;;;;;;11.05;8.40;;;;;;;3.06;84.19;99975.69;1703176;83;20966;-40
2022/12/25 14:06:29;;;;;;;11.55;8.23;;;;;;;3.11;84.09;99975.35;1729728;83;21641;-40
2022/12/25 14:08:58;;;;;;;10.20;8.28;;;;;;;3.13;83.95;99977.20;1729683;83;21104;-39
2022/12/25 14:11:27;;;;;;;11.95;7.97;;;;;;;3.11;83.98;99986.06;1729725;83;21138;-39
2022/12/25 14:13:57;;;;;;;10.17;7.83;;;;;;;3.10;83.77;99985.84;1730189;83;21005;-39
2022/12/25 14:16:24;;;;;;;9.38;7.55;;;;;;;3.12;83.44;99983.64;1729992;83;21036;-39
2022/12/25 14:18:54;;;;;;;9.40;7.28;;;;;;;3.15;83.16;99983.84;1729653;83;21057;-39
2022/12/25 14:21:33;;;;;;;9.78;7.70;;;;;;;3.13;83.06;99987.92;1729193;83;20990;-39
2022/12/25 14:24:00;;;;;;;8.70;7.27;;;;;;;3.08;82.80;99985.33;1730156;83;21158;-39
2022/12/25 14:26:30;;;;;;;11.10;7.72;;;;;;;3.04;82.62;99993.96;1729792;83;21598;-39
2022/12/25 14:29:08;;;;;;;9.78;7.33;;;;;;;3.08;82.61;99994.16;1729950;83;21055;-40
2022/12/25 14:31:37;;;;;;;12.80;8.95;;;;;;;3.11;82.60;99996.78;1730000;83;21040;-39
2022/12/25 14:34:08;;;;;;;12.55;8.68;;;;;;;3.09;82.66;99997.64;1730041;83;21030;-39
2022/12/25 14:36:35;;;;;;;9.38;7.58;;;;;;;3.06;82.67;100000.34;1729886;83;21156;-39
2022/12/25 14:39:05;;;;;;;10.82;8.45;;;;;;;3.08;82.63;99998.72;1702842;83;20970;-39
2022/12/25 14:41:37;;;;;;;11.68;8.25;;;;;;;3.13;82.42;99999.97;1729442;83;20962;-40
2022/12/25 14:44:26;;;;;;;11.90;8.30;;;;;;;3.14;82.32;100001.56;1729182;83;21002;-40
2022/12/25 14:47:16;;;;;;;10.32;7.80;;;;;;;3.11;82.28;100009.63;1729494;83;21595;-39
2022/12/25 14:49:44;;;;;;;9.85;7.60;;;;;;;3.09;82.33;100009.69;1729099;83;23138;-39
2022/12/25 14:52:27;;;;;;;11.63;7.87;;;;;;;3.11;82.25;100006.16;1729260;83;21049;-39
2022/12/25 14:55:04;;;;;;;12.85;8.55;;;;;;;3.16;81.92;100010.89;1729153;83;21009;-40
2022/12/25 14:57:38;;;;;;;11.43;8.15;;;;;;;3.16;82.06;100011.43;1702883;83;21044;-40
2022/12/25 15:00:22;;;;;;;10.58;8.15;;;;;;;3.17;82.14;100018.38;1729135;83;21088;-39
2022/12/25 15:02:50;;;;;;;10.00;7.95;;;;;;;3.19;81.96;100021.58;1729238;83;21551;-40
2022/12/25 15:05:38;;;;;;;10.45;8.08;;;;;;;3.21;81.67;100021.52;1729206;83;20956;-40
2022/12/25 15:08:11;;;;;;;11.00;7.80;;;;;;;3.24;81.49;100026.84;1729211;83;21034;-40
2022/12/25 15:10:40;;;;;;;11.50;8.18;;;;;;;3.18;81.48;100024.00;1729240;83;21037;-39
2022/12/25 15:13:06;;;;;;;8.68;7.30;;;;;;;3.17;81.57;100025.08;1729433;83;21058;-39
2022/12/25 15:15:33;;;;;;;9.58;7.75;;;;;;;3.14;81.49;100033.72;1729779;83;21103;-40
2022/12/25 15:18:01;;;;;;;10.95;7.62;;;;;;;3.17;81.45;100034.45;1729414;83;21543;-40
2022/12/25 15:20:30;;;;;;;10.50;8.18;;;;;;;3.19;81.32;100032.30;1729709;83;20990;-39
2022/12/25 15:23:01;;;;;;;9.60;6.63;;;;;;;3.12;81.34;100038.56;1729482;83;21063;-40
2022/12/25 15:25:28;;;;;;;10.65;8.50;;;;;;;3.10;81.56;100048.79;1729211;83;22415;-40
2022/12/25 15:27:55;;;;;;;13.55;9.53;;;;;;;3.09;81.54;100066.75;1729011;83;23169;-39
2022/12/25 15:30:22;;;;;;;12.70;9.55;;;;;;;3.18;81.48;100060.17;1729195;83;21019;-39
2022/12/25 15:32:49;;;;;;;14.03;10.53;;;;;;;3.21;81.45;100060.37;1729100;83;21048;-40
2022/12/25 15:35:19;;;;;;;16.15;12.13;;;;;;;3.24;81.49;100065.16;1729382;83;21044;-40
2022/12/25 15:37:46;;;;;;;15.93;10.95;;;;;;;3.27;81.49;100066.44;1729538;83;26929;-40
2022/12/25 15:40:14;;;;;;;15.30;11.80;;;;;;;3.31;81.24;100059.41;1737853;81;21143;-39
2022/12/25 15:42:43;;;;;;;20.97;15.13;;;;;;;3.39;80.85;100053.36;1742389;82;21037;-39
2022/12/25 15:45:21;;;;;;;20.17;14.15;;;;;;;3.40;80.64;100050.94;1742267;82;20981;-39
2022/12/25 15:47:49;;;;;;;18.87;13.28;;;;;;;3.39;80.79;100056.84;1741753;82;20941;-39
2022/12/25 15:50:16;;;;;;;15.63;11.50;;;;;;;3.39;80.60;100058.72;1742391;82;21068;-39
2022/12/25 15:52:44;;;;;;;14.07;10.00;;;;;;;3.35;80.69;100054.50;1742441;82;21960;-39
2022/12/25 15:55:10;;;;;;;15.35;10.65;;;;;;;3.35;80.61;100059.06;1742429;82;21028;-39
2022/12/25 15:57:40;;;;;;;13.88;10.32;;;;;;;3.37;80.50;100054.22;1742541;82;20969;-40
2022/12/25 16:00:10;;;;;;;31.93;21.50;;;;;;;3.38;80.72;100051.79;1742903;82;21033;-39
2022/12/25 16:02:38;;;;;;;64.55;40.25;;;;;;;3.39;80.71;100057.37;1720252;82;21096;-39
2022/12/25 16:05:07;;;;;;;14.87;11.25;;;;;;;3.38;80.70;100059.83;1742472;82;23127;-39
2022/12/25 16:07:35;;;;;;;13.15;10.63;;;;;;;3.38;80.46;100057.16;1742351;82;20961;-39
2022/12/25 16:10:02;;;;;;;13.43;10.85;;;;;;;3.39;80.22;100053.36;1742228;82;20993;-40
2022/12/25 16:12:29;;;;;;;12.33;10.15;;;;;;;3.40;80.15;100057.09;1742456;82;21013;-40
2022/12/25 16:14:56;;;;;;;11.80;9.33;;;;;;;3.40;80.26;100062.99;1742298;82;21065;-40
2022/12/25 16:17:22;;;;;;;14.28;9.93;;;;;;;3.43;80.23;100067.78;1742347;82;21138;-39
2022/12/25 16:19:49;;;;;;;14.90;10.40;;;;;;;3.43;80.05;100065.11;1742264;82;20954;-39